createdAt,value
2019-04-21T02:00:10.313Z,0.0
2019-04-21T02:15:23.311Z,0.0
2019-04-21T02:30:35.200Z,0.0
2019-04-21T02:50:31.395Z,0.0
2019-04-21T03:10:34.557Z,2.0
2019-04-21T03:30:55.261Z,27.0
2019-04-21T03:31:49.104Z,29.5
2019-04-21T03:50:32.938Z,528.0
2019-04-21T03:51:35.543Z,563.5
2019-04-21T04:10:31.085Z,3808.0
2019-04-21T04:30:29.130Z,11484.0
2019-04-21T04:31:36.919Z,11622.5
2019-04-21T04:50:49.130Z,18731.0
2019-04-21T04:51:55.733Z,18928.5
2019-04-21T05:10:38.186Z,47832.0
2019-04-21T05:30:28.229Z,35449.0
2019-04-21T05:31:24.850Z,34734.5
2019-04-21T05:32:24.173Z,34802.0
2019-04-21T05:33:26.809Z,35044.0
2019-04-21T05:34:21.789Z,35429.0
2019-04-21T05:35:19.733Z,35979.2
2019-04-21T05:36:18.525Z,36675.0
2019-04-21T05:37:19.899Z,37412.1
2019-04-21T05:38:16.531Z,37981.2
2019-04-21T05:39:18.267Z,38740.7
2019-04-21T05:40:13.703Z,39905.2
2019-04-21T05:41:09.900Z,40760.3
2019-04-21T05:42:08.710Z,41133.3
2019-04-21T05:43:21.158Z,41553.4
2019-04-21T05:44:27.657Z,42246.3
2019-04-21T05:45:26.663Z,43307.6
2019-04-21T05:46:25.021Z,44611.2
2019-04-21T05:47:24.790Z,45939.6
2019-04-21T05:48:28.067Z,46939.6
2019-04-21T05:49:21.538Z,47933.7
2019-04-21T05:50:16.426Z,48846.5
2019-04-21T05:51:20.120Z,49341.4
2019-04-21T05:52:14.242Z,49982.3
2019-04-21T05:53:29.236Z,51049.2
2019-04-21T05:54:29.192Z,52049.8
2019-04-21T05:55:24.269Z,52445.0
2019-04-21T05:56:22.036Z,52793.7
2019-04-21T05:57:20.129Z,53649.0
2019-04-21T05:58:17.782Z,54450.9
2019-04-21T05:59:19.932Z,54891.9
2019-04-21T06:00:22.814Z,55473.8
2019-04-21T06:01:28.361Z,56024.1
2019-04-21T06:02:22.047Z,56367.1
2019-04-21T06:03:22.940Z,57028.8
2019-04-21T06:04:38.131Z,57926.4
2019-04-21T06:05:36.365Z,58800.5
2019-04-21T06:06:25.983Z,59951.3
2019-04-21T06:07:22.737Z,60841.3
2019-04-21T06:08:24.969Z,61307.8
2019-04-21T06:09:25.313Z,61637.8
2019-04-21T06:10:26.953Z,62174.9
2019-04-21T06:11:25.008Z,62850.8
2019-04-21T06:12:19.304Z,63323.9
2019-04-21T06:13:26.285Z,63756.7
2019-04-21T06:14:20.088Z,64221.5
2019-04-21T06:15:19.414Z,64584.1
2019-04-21T06:16:42.512Z,64831.1
2019-04-21T06:17:29.605Z,65199.7
2019-04-21T06:18:26.897Z,65522.3
2019-04-21T06:19:30.495Z,65535.0
2019-04-21T06:30:25.090Z,65535.0
2019-04-21T06:45:27.108Z,65535.0
2019-04-21T07:00:18.281Z,65535.0
2019-04-21T07:15:24.769Z,65535.0
2019-04-21T07:30:24.153Z,65535.0
2019-04-21T07:45:16.303Z,65535.0
2019-04-21T08:10:20.874Z,65535.0
2019-04-21T08:30:25.515Z,65535.0
2019-04-21T08:50:20.366Z,65535.0
2019-04-21T09:00:19.616Z,65535.0
2019-04-21T09:15:18.769Z,65535.0
2019-04-21T09:30:03.359Z,65535.0
2019-04-21T09:45:04.121Z,65535.0
2019-04-21T10:00:08.515Z,65535.0
2019-04-21T10:15:02.137Z,65535.0
2019-04-21T10:30:01.660Z,65535.0
2019-04-21T10:45:01.061Z,65535.0
2019-04-21T11:00:02.081Z,65535.0
2019-04-21T11:15:01.149Z,65535.0
2019-04-21T11:30:00.387Z,65535.0
2019-04-21T11:45:00.691Z,65535.0
2019-04-21T12:00:01.745Z,65535.0
2019-04-21T12:15:01.849Z,65535.0
2019-04-21T12:30:01.895Z,65535.0
2019-04-21T12:45:01.373Z,65535.0
2019-04-21T13:00:00.687Z,65535.0
2019-04-21T13:15:01.280Z,65535.0
2019-04-21T13:30:00.486Z,65535.0
2019-04-21T13:45:02.912Z,65535.0
2019-04-21T14:00:01.353Z,65535.0
2019-04-21T14:15:02.197Z,65535.0
2019-04-21T14:30:00.701Z,65535.0
2019-04-21T14:45:00.826Z,65535.0
2019-04-21T15:00:00.771Z,65535.0
2019-04-21T15:15:00.567Z,65535.0
2019-04-21T15:30:02.807Z,65535.0
2019-04-21T15:45:00.956Z,65535.0
2019-04-21T16:00:00.883Z,65535.0
2019-04-21T16:01:00.674Z,65208.4
2019-04-21T16:02:00.914Z,64474.1
2019-04-21T16:03:00.475Z,63531.1
2019-04-21T16:04:02.133Z,62454.1
2019-04-21T16:05:01.057Z,61288.7
2019-04-21T16:06:01.365Z,60054.7
2019-04-21T16:07:03.647Z,58768.1
2019-04-21T16:08:00.411Z,57439.3
2019-04-21T16:09:01.314Z,56079.7
2019-04-21T16:10:01.880Z,54690.2
2019-04-21T16:11:03.666Z,53275.7
2019-04-21T16:12:00.246Z,51836.6
2019-04-21T16:13:01.513Z,50377.7
2019-04-21T16:14:01.820Z,48892.5
2019-04-21T16:15:00.765Z,47380.7
2019-04-21T16:16:00.331Z,46177.6
2019-04-21T16:17:01.202Z,45363.8
2019-04-21T16:18:01.606Z,44737.5
2019-04-21T16:19:00.572Z,44227.0
2019-04-21T16:20:01.995Z,43783.2
2019-04-21T16:21:01.734Z,43389.1
2019-04-21T16:22:01.089Z,43030.5
2019-04-21T16:23:00.450Z,42696.6
2019-04-21T16:24:00.528Z,42379.7
2019-04-21T16:25:00.859Z,42074.7
2019-04-21T16:26:02.439Z,41782.3
2019-04-21T16:27:03.450Z,41497.5
2019-04-21T16:28:01.381Z,41217.0
2019-04-21T16:29:00.251Z,40948.7
2019-04-21T16:30:01.908Z,40693.3
2019-04-21T16:31:00.541Z,40441.5
2019-04-21T16:32:01.572Z,40192.4
2019-04-21T16:33:02.160Z,39947.5
2019-04-21T16:34:01.001Z,39704.4
2019-04-21T16:35:05.148Z,39467.1
2019-04-21T16:36:01.966Z,39233.8
2019-04-21T16:37:01.486Z,39003.4
2019-04-21T16:38:02.370Z,38778.1
2019-04-21T16:39:01.709Z,38549.8
2019-04-21T16:40:01.224Z,38326.3
2019-04-21T16:41:04.476Z,38100.9
2019-04-21T16:42:00.428Z,37878.2
2019-04-21T16:43:00.870Z,37656.7
2019-04-21T16:44:00.912Z,37434.3
2019-04-21T16:45:00.910Z,37210.5
2019-04-21T16:46:01.266Z,36987.4
2019-04-21T16:47:01.321Z,36766.5
2019-04-21T16:48:01.113Z,36548.3
2019-04-21T16:49:01.741Z,36333.0
2019-04-21T16:50:01.610Z,36118.5
2019-04-21T16:51:01.486Z,35903.4
2019-04-21T16:52:00.276Z,35689.9
2019-04-21T16:53:01.681Z,35473.4
2019-04-21T16:54:00.259Z,35257.6
2019-04-21T16:55:03.012Z,35037.2
2019-04-21T16:56:00.291Z,34815.1
2019-04-21T16:57:01.766Z,34591.4
2019-04-21T16:58:10.003Z,34366.1
2019-04-21T16:59:00.857Z,34139.9
2019-04-21T17:00:00.547Z,33910.9
2019-04-21T17:01:04.920Z,33678.5
2019-04-21T17:02:00.619Z,33444.6
2019-04-21T17:03:00.732Z,33209.1
2019-04-21T17:04:00.532Z,32975.0
2019-04-21T17:05:00.524Z,32740.7
2019-04-21T17:06:03.148Z,32507.5
2019-04-21T17:07:00.942Z,32271.5
2019-04-21T17:08:00.266Z,32035.1
2019-04-21T17:09:00.942Z,31798.3
2019-04-21T17:10:00.467Z,31561.5
2019-04-21T17:11:10.255Z,31325.3
2019-04-21T17:12:03.723Z,31088.9
2019-04-21T17:13:02.040Z,30853.1
2019-04-21T17:14:00.583Z,30616.8
2019-04-21T17:15:13.438Z,30383.2
2019-04-21T17:16:27.044Z,30147.8
2019-04-21T17:17:24.861Z,29908.1
2019-04-21T17:18:19.202Z,29665.9
2019-04-21T17:19:11.234Z,29417.0
2019-04-21T17:20:15.579Z,29166.9
2019-04-21T17:21:01.595Z,28914.1
2019-04-21T17:22:01.587Z,28661.0
2019-04-21T17:23:01.663Z,28405.1
2019-04-21T17:24:02.162Z,28147.2
2019-04-21T17:25:02.671Z,27889.3
2019-04-21T17:26:01.123Z,27627.4
2019-04-21T17:27:00.342Z,27360.2
2019-04-21T17:28:01.596Z,27087.1
2019-04-21T17:29:00.657Z,26809.3
2019-04-21T17:30:01.167Z,26525.6
2019-04-21T17:31:00.361Z,26238.7
2019-04-21T17:32:02.993Z,25949.4
2019-04-21T17:33:01.354Z,25657.1
2019-04-21T17:34:08.547Z,25362.6
2019-04-21T17:35:01.910Z,25062.7
2019-04-21T17:36:00.856Z,24758.3
2019-04-21T17:37:01.230Z,24447.4
2019-04-21T17:38:01.612Z,24133.4
2019-04-21T17:39:00.288Z,23814.9
2019-04-21T17:40:03.887Z,23491.2
2019-04-21T17:41:12.552Z,23164.5
2019-04-21T17:42:11.538Z,22836.4
2019-04-21T17:43:05.414Z,22507.4
2019-04-21T17:44:00.474Z,22178.0
2019-04-21T17:45:01.275Z,21847.5
2019-04-21T17:46:00.366Z,21516.9
2019-04-21T17:47:03.807Z,21185.3
2019-04-21T17:48:05.787Z,20851.9
2019-04-21T17:49:01.104Z,20517.1
2019-04-21T17:50:02.959Z,20180.7
2019-04-21T17:51:01.245Z,19842.7
2019-04-21T17:52:02.886Z,19503.3
2019-04-21T17:53:04.910Z,19162.1
2019-04-21T17:54:02.388Z,18821.0
2019-04-21T17:55:08.834Z,18478.3
2019-04-21T17:56:21.945Z,18134.7
2019-04-21T17:57:21.326Z,17788.7
2019-04-21T17:58:14.694Z,17439.9
2019-04-21T17:59:27.476Z,17088.4
2019-04-21T18:00:23.347Z,16734.1
2019-04-21T18:01:24.614Z,16377.7
2019-04-21T18:02:14.403Z,16019.7
2019-04-21T18:03:29.409Z,15660.1
2019-04-21T18:04:17.981Z,15298.3
2019-04-21T18:05:20.796Z,14935.3
2019-04-21T18:06:13.826Z,14570.7
2019-04-21T18:07:20.917Z,14205.2
2019-04-21T18:08:22.750Z,13839.4
2019-04-21T18:09:21.595Z,13471.9
2019-04-21T18:10:15.462Z,13104.7
2019-04-21T18:11:08.898Z,12737.3
2019-04-21T18:12:16.385Z,12370.7
2019-04-21T18:13:06.445Z,12004.9
2019-04-21T18:14:01.651Z,11639.9
2019-04-21T18:15:17.982Z,11276.3
2019-04-21T18:16:09.353Z,10913.9
2019-04-21T18:17:02.355Z,10552.6
2019-04-21T18:18:00.653Z,10193.2
2019-04-21T18:19:00.907Z,9836.3
2019-04-21T18:20:01.752Z,9481.6
2019-04-21T18:21:00.806Z,9130.1
2019-04-21T18:22:05.157Z,8781.2
2019-04-21T18:23:00.960Z,8434.9
2019-04-21T18:24:07.130Z,8092.1
2019-04-21T18:25:06.577Z,7752.1
2019-04-21T18:26:07.549Z,7415.6
2019-04-21T18:27:03.716Z,7083.1
2019-04-21T18:28:00.712Z,6755.3
2019-04-21T18:29:01.622Z,6432.6
2019-04-21T18:30:00.473Z,6115.3
2019-04-21T18:31:00.515Z,5803.5
2019-04-21T18:32:01.085Z,5498.1
2019-04-21T18:33:03.863Z,5199.3
2019-04-21T18:34:04.884Z,4907.4
2019-04-21T18:35:05.238Z,4623.2
2019-04-21T18:36:02.399Z,4346.5
2019-04-21T18:37:05.367Z,4078.4
2019-04-21T18:38:07.450Z,3819.0
2019-04-21T18:39:15.736Z,3568.9
2019-04-21T18:40:09.331Z,3328.7
2019-04-21T18:41:01.409Z,3098.1
2019-04-21T18:42:17.006Z,2877.5
2019-04-21T18:43:35.448Z,2666.7
2019-04-21T18:44:27.821Z,2465.9
2019-04-21T18:45:40.115Z,2274.8
2019-04-21T18:46:19.981Z,2093.6
2019-04-21T18:47:19.421Z,1922.2
2019-04-21T18:48:09.120Z,1760.4
2019-04-21T18:49:02.644Z,1608.3
2019-04-21T18:50:01.814Z,1465.5
2019-04-21T18:51:06.082Z,1331.9
2019-04-21T18:52:05.804Z,1206.9
2019-04-21T18:53:11.940Z,1090.3
2019-04-21T18:54:20.782Z,982.1
2019-04-21T18:55:12.740Z,881.7
2019-04-21T18:56:05.645Z,788.9
2019-04-21T18:57:07.593Z,703.7
2019-04-21T18:58:00.988Z,625.5
2019-04-21T18:59:02.563Z,554.1
2019-04-21T19:00:15.080Z,489.3
2019-04-21T19:01:07.243Z,430.4
2019-04-21T19:02:06.231Z,377.3
2019-04-21T19:03:01.951Z,329.7
2019-04-21T19:04:00.444Z,287.1
2019-04-21T19:05:07.789Z,249.1
2019-04-21T19:06:07.037Z,215.3
2019-04-21T19:07:12.591Z,185.6
2019-04-21T19:08:14.499Z,159.5
2019-04-21T19:09:14.077Z,136.7
2019-04-21T19:10:26.432Z,116.9
2019-04-21T19:11:18.631Z,99.9
2019-04-21T19:12:20.382Z,85.3
2019-04-21T19:50:22.954Z,0.0
2019-04-21T20:00:04.096Z,0.0
2019-04-21T20:15:25.399Z,0.0
2019-04-21T20:30:19.907Z,0.0
2019-04-21T21:00:18.186Z,0.0
2019-04-21T21:15:09.895Z,0.0
2019-04-21T21:30:14.216Z,0.0
2019-04-21T21:45:08.247Z,0.0
2019-04-21T22:00:04.579Z,0.0
2019-04-21T22:15:02.261Z,0.0
2019-04-21T22:30:03.786Z,0.0
2019-04-21T22:45:00.901Z,0.0
2019-04-21T23:00:03.841Z,0.0
2019-04-21T23:15:06.170Z,0.0
2019-04-21T23:30:25.369Z,0.0
2019-04-21T23:45:02.953Z,0.0
